Time;durP1;ratioP1;P1;durP2;ratioP2;P2;SDS_P1;SDS_P2;PMS_P1;PMS_P2;Temp;Humidity;BMP_temperature;BMP_pressure;BME280_temperature;BME280_humidity;BME280_pressure;Samples;Min_cycle;Max_cycle;Signal;HPM_P1;HPM_P2
2022/02/04 00:05:40;;;;;;;18.82;13.38;;;;;;;2.00;99.13;98920.71;1824817;77;21021;-63
2022/02/04 00:08:41;;;;;;;;;;;;;;;1.98;99.20;98927.17;1812138;77;21926;-63
2022/02/04 00:21:30;;;;;;;22.80;13.88;;;;;;;1.98;99.47;98914.75;1704968;83;21543;-63
2022/02/04 00:23:52;;;;;;;18.90;13.95;;;;;;;1.97;99.56;98913.06;1687945;84;21021;-63
2022/02/04 00:26:26;;;;;;;20.88;14.80;;;;;;;1.96;99.64;98917.38;1698029;83;21645;-64
2022/02/04 00:31:42;;;;;;;19.67;14.15;;;;;;;2.03;99.57;98915.93;1648681;86;21119;-63
2022/02/04 00:34:10;;;;;;;22.13;13.85;;;;;;;2.00;99.60;98913.83;1658852;86;21560;-63
2022/02/04 00:36:48;;;;;;;18.90;13.30;;;;;;;2.04;99.75;98913.30;1670774;84;21087;-62
2022/02/04 00:39:14;;;;;;;19.05;13.03;;;;;;;2.06;99.56;98915.84;1657996;85;20994;-63
2022/02/04 00:41:40;;;;;;;17.32;12.88;;;;;;;2.06;99.47;98909.41;1665821;84;21048;-62
2022/02/04 00:44:15;;;;;;;17.92;12.93;;;;;;;2.05;99.45;98908.58;1698925;83;20966;-63
2022/02/04 00:46:51;;;;;;;16.40;13.25;;;;;;;2.04;99.46;98907.31;1721214;78;21742;-64
2022/02/04 00:49:14;;;;;;;16.35;12.05;;;;;;;2.09;99.62;98910.17;1820973;77;20958;-63
2022/02/04 00:51:51;;;;;;;16.75;12.70;;;;;;;2.12;99.66;98907.96;1825193;78;21002;-62
2022/02/04 00:54:18;;;;;;;18.52;12.55;;;;;;;2.15;99.56;98902.27;1823615;77;20977;-63
2022/02/04 00:57:08;;;;;;;17.87;12.13;;;;;;;2.16;99.54;98913.45;1822275;77;21480;-63
2022/02/04 01:26:22;;;;;;;18.90;11.83;;;;;;;2.37;98.98;98879.37;1789275;78;21304;-63
2022/02/04 01:28:52;;;;;;;17.50;11.37;;;;;;;2.39;99.09;98878.89;1785327;78;21480;-63
2022/02/04 01:31:19;;;;;;;21.77;13.62;;;;;;;2.26;99.07;98880.55;1802364;78;21345;-63
2022/02/04 01:33:47;;;;;;;17.37;12.33;;;;;;;2.17;99.85;98879.08;1787166;78;21578;-64
2022/02/04 01:36:15;;;;;;;20.72;12.25;;;;;;;2.18;99.95;98875.59;1783132;79;21035;-63
2022/02/04 01:38:42;;;;;;;22.10;13.75;;;;;;;2.22;99.87;98874.65;1779422;78;21476;-63
2022/02/04 01:41:10;;;;;;;25.85;13.25;;;;;;;2.13;100.00;98881.31;1787221;78;21561;-63
2022/02/04 01:43:38;;;;;;;23.15;12.80;;;;;;;2.11;100.00;98871.52;1788582;78;21541;-64
2022/02/04 01:46:08;;;;;;;21.33;12.63;;;;;;;2.11;100.00;98867.66;1811327;77;21625;-63
2022/02/04 01:48:36;;;;;;;20.00;13.08;;;;;;;2.12;100.00;98873.19;1781424;79;21503;-63
2022/02/04 01:51:07;;;;;;;21.85;12.95;;;;;;;2.14;100.00;98870.14;1812303;77;21080;-63
2022/02/04 01:53:34;;;;;;;21.60;12.80;;;;;;;2.19;99.94;98874.28;1799461;78;21590;-63
2022/02/04 01:56:13;;;;;;;23.52;12.63;;;;;;;2.23;99.93;98873.30;1798343;79;21048;-63
2022/02/04 01:58:41;;;;;;;20.80;12.10;;;;;;;2.23;100.00;98873.75;1787510;79;21044;-63
2022/02/04 02:01:08;;;;;;;18.48;11.85;;;;;;;2.32;100.00;98868.34;1793546;79;20957;-63
2022/02/04 02:03:35;;;;;;;15.40;11.33;;;;;;;2.34;99.88;98864.00;1784023;79;21077;-63
2022/02/04 02:06:08;;;;;;;18.35;12.20;;;;;;;2.36;99.73;98872.54;1785199;79;21500;-63
2022/02/04 02:08:32;;;;;;;17.82;11.45;;;;;;;2.39;99.69;98864.72;1791025;80;20979;-63
2022/02/04 02:10:58;;;;;;;18.50;11.43;;;;;;;2.40;99.59;98859.96;1784269;79;21065;-63
2022/02/04 02:13:41;;;;;;;19.05;11.45;;;;;;;2.42;99.56;98857.36;1784188;79;21103;-63
2022/02/04 02:35:32;;;;;;;17.17;11.35;;;;;;;2.27;99.51;98844.47;1788177;79;20971;-63
2022/02/04 02:46:04;;;;;;;17.32;11.75;;;;;;;2.17;100.00;98840.44;1792926;79;20947;-62
2022/02/04 02:48:41;;;;;;;19.40;11.45;;;;;;;2.18;100.00;98842.95;1776977;80;21014;-62
2022/02/04 02:56:18;;;;;;;17.42;11.00;;;;;;;2.22;100.00;98836.02;1791849;80;21120;-62
2022/02/04 02:58:35;;;;;;;15.40;11.50;;;;;;;2.24;100.00;98838.95;1788196;79;21548;-62
2022/02/04 03:01:05;;;;;;;16.48;10.43;;;;;;;2.26;100.00;98832.45;1790582;78;20998;-62
2022/02/04 03:03:34;;;;;;;13.85;10.38;;;;;;;2.32;100.00;98832.27;1786085;80;21039;-63
2022/02/04 03:06:00;;;;;;;15.05;10.43;;;;;;;2.34;100.00;98831.80;1786528;79;21535;-63
2022/02/04 03:08:28;;;;;;;15.13;10.15;;;;;;;2.34;100.00;98830.51;1792870;79;21411;-63
2022/02/04 03:10:57;;;;;;;15.15;10.40;;;;;;;2.38;100.00;98835.99;1785270;79;20969;-63
2022/02/04 03:13:28;;;;;;;15.15;11.35;;;;;;;2.40;100.00;98827.75;1780466;79;21064;-63
2022/02/04 03:16:00;;;;;;;17.07;11.03;;;;;;;2.39;100.00;98828.66;1792691;79;20962;-64
2022/02/04 03:18:25;;;;;;;14.40;9.75;;;;;;;2.40;100.00;98831.62;1785877;79;21042;-63
2022/02/04 03:20:56;;;;;;;13.50;10.48;;;;;;;2.40;100.00;98839.34;1768268;79;21927;-63
2022/02/04 03:23:25;;;;;;;14.35;9.83;;;;;;;2.40;100.00;98830.33;1809328;78;20978;-63
2022/02/04 03:25:58;;;;;;;15.23;9.88;;;;;;;2.41;100.00;98839.77;1800845;78;20975;-63
2022/02/04 03:28:25;;;;;;;16.50;10.85;;;;;;;2.41;100.00;98834.62;1788598;78;21540;-63
2022/02/04 03:30:51;;;;;;;14.58;9.83;;;;;;;2.40;100.00;98833.36;1779121;78;20996;-63
2022/02/04 03:33:20;;;;;;;15.75;10.48;;;;;;;2.39;100.00;98833.80;1791685;78;21652;-63
2022/02/04 03:35:46;;;;;;;16.62;10.20;;;;;;;2.39;100.00;98833.80;1809952;78;21036;-63
2022/02/04 03:38:13;;;;;;;14.83;10.40;;;;;;;2.38;100.00;98832.12;1791971;78;20915;-63
2022/02/04 03:40:40;;;;;;;14.43;9.87;;;;;;;2.36;100.00;98830.48;1785369;79;21530;-63
2022/02/04 03:43:06;;;;;;;15.58;9.98;;;;;;;2.35;100.00;98824.48;1825083;78;21068;-63
2022/02/04 03:45:33;;;;;;;12.05;9.18;;;;;;;2.35;100.00;98828.35;1796498;79;21446;-63
2022/02/04 03:48:00;;;;;;;19.25;10.20;;;;;;;2.32;100.00;98828.41;1791852;79;20875;-63
2022/02/04 03:50:28;;;;;;;12.93;9.65;;;;;;;2.32;100.00;98824.55;1820954;78;21084;-63
2022/02/04 03:52:55;;;;;;;16.12;9.03;;;;;;;2.34;100.00;98830.51;1781391;80;21068;-63
2022/02/04 03:55:21;;;;;;;17.12;10.55;;;;;;;2.33;100.00;98822.39;1778427;80;21002;-63
2022/02/04 03:57:48;;;;;;;11.83;9.07;;;;;;;2.39;100.00;98818.34;1787107;79;21757;-63
2022/02/04 04:00:17;;;;;;;12.27;9.30;;;;;;;2.37;100.00;98819.28;1766833;79;20968;-64
2022/02/04 04:02:46;;;;;;;12.80;8.63;;;;;;;2.40;100.00;98816.61;1795196;79;21395;-63
2022/02/04 04:05:15;;;;;;;15.03;9.18;;;;;;;2.41;100.00;98817.88;1811315;78;21169;-63
2022/02/04 04:07:46;;;;;;;12.73;8.88;;;;;;;2.44;100.00;98826.80;1776921;79;20924;-63
2022/02/04 04:10:16;;;;;;;14.20;9.55;;;;;;;2.44;100.00;98824.22;1814818;78;21511;-63
2022/02/04 04:12:40;;;;;;;11.80;8.70;;;;;;;2.46;100.00;98823.73;1788443;78;20998;-63
2022/02/04 04:15:09;;;;;;;12.70;8.93;;;;;;;2.50;100.00;98827.52;1790543;80;21487;-63
2022/02/04 04:17:44;;;;;;;15.53;9.65;;;;;;;2.53;100.00;98833.86;1768979;79;21036;-63
2022/02/04 04:20:19;;;;;;;14.20;9.15;;;;;;;2.53;100.00;98830.00;1780012;78;20998;-63
2022/02/04 04:22:46;;;;;;;12.37;9.45;;;;;;;2.54;100.00;98827.81;1800446;79;23114;-63
2022/02/04 04:25:13;;;;;;;19.27;10.25;;;;;;;2.57;100.00;98830.30;1801931;79;24701;-63
2022/02/04 04:27:43;;;;;;;18.12;10.58;;;;;;;2.56;100.00;98829.91;1789645;79;21508;-63
2022/02/04 04:30:16;;;;;;;17.98;10.48;;;;;;;2.58;100.00;98830.72;1776701;79;22172;-64
2022/02/04 04:32:44;;;;;;;18.37;10.80;;;;;;;2.59;100.00;98819.51;1808772;78;20935;-64
2022/02/04 04:35:15;;;;;;;16.55;10.03;;;;;;;2.57;100.00;98818.25;1800895;78;21900;-63
2022/02/04 04:37:49;;;;;;;18.42;10.80;;;;;;;2.60;100.00;98818.61;1785460;79;20915;-63
2022/02/04 04:40:35;;;;;;;17.75;11.03;;;;;;;2.60;100.00;98816.03;1795085;79;21264;-63
2022/02/04 05:29:08;;;;;;;16.30;10.00;;;;;;;2.45;100.00;98813.02;1798196;79;21530;-64
2022/02/04 05:31:33;;;;;;;;;;;;;;;2.44;100.00;98813.91;1773763;79;20986;-64
2022/02/04 05:34:00;;;;;;;15.73;10.47;;;;;;;2.46;100.00;98818.59;1797809;79;20174;-64
2022/02/04 05:36:27;;;;;;;17.60;10.75;;;;;;;2.45;100.00;98819.45;1797621;79;20945;-64
2022/02/04 05:38:54;;;;;;;21.43;10.93;;;;;;;2.47;100.00;98818.14;1794608;79;21087;-63
2022/02/04 05:41:29;;;;;;;18.45;11.33;;;;;;;2.48;100.00;98817.23;1793829;79;21114;-63
2022/02/04 05:43:54;;;;;;;16.00;10.60;;;;;;;2.53;100.00;98804.23;1788781;79;21079;-63
2022/02/04 05:46:26;;;;;;;16.02;10.65;;;;;;;2.52;100.00;98803.81;1797717;79;20947;-62
2022/02/04 05:48:53;;;;;;;18.73;11.70;;;;;;;2.45;100.00;98797.55;1797766;78;21028;-63
2022/02/04 05:54:16;;;;;;;14.93;10.00;;;;;;;2.47;100.00;98797.52;1792468;79;22342;-62
2022/02/04 05:57:06;;;;;;;15.13;10.23;;;;;;;2.44;100.00;98802.32;1792928;79;21082;-62
2022/02/04 05:59:38;;;;;;;16.25;10.65;;;;;;;2.52;100.00;98805.09;1795278;79;21061;-63
2022/02/04 06:04:44;;;;;;;17.15;10.10;;;;;;;2.56;100.00;98793.83;1791828;79;21014;-63
2022/02/04 06:15:08;;;;;;;21.85;10.65;;;;;;;2.59;100.00;98796.31;1794151;79;20905;-62
2022/02/04 06:22:51;;;;;;;18.07;11.30;;;;;;;2.70;100.00;98805.86;1802861;78;20940;-63
2022/02/04 06:25:19;;;;;;;15.53;11.05;;;;;;;2.74;100.00;98803.57;1806365;78;20899;-63
2022/02/04 06:27:47;;;;;;;21.55;13.28;;;;;;;2.78;100.00;98807.77;1808184;78;20950;-63
2022/02/04 06:30:14;;;;;;;21.05;13.80;;;;;;;2.80;100.00;98816.30;1794410;78;21131;-64
2022/02/04 06:32:41;;;;;;;24.25;14.28;;;;;;;2.82;100.00;98813.66;1796035;79;21128;-63
2022/02/04 06:35:10;;;;;;;22.77;12.95;;;;;;;2.83;100.00;98812.76;1809917;78;28847;-64
2022/02/04 06:37:38;;;;;;;21.33;13.20;;;;;;;2.87;100.00;98806.63;1817903;78;20898;-64
2022/02/04 06:40:10;;;;;;;17.48;11.30;;;;;;;2.89;100.00;98812.14;1790668;79;21061;-63
2022/02/04 06:42:37;;;;;;;27.50;12.75;;;;;;;2.90;100.00;98812.53;1781501;80;20986;-63
2022/02/04 06:45:08;;;;;;;20.27;11.08;;;;;;;2.93;100.00;98805.60;1821232;78;21030;-63
2022/02/04 06:47:38;;;;;;;18.57;11.88;;;;;;;2.88;100.00;98807.86;1811632;78;21021;-62
2022/02/04 06:50:06;;;;;;;18.90;10.50;;;;;;;2.93;100.00;98800.45;1807518;78;21030;-64
2022/02/04 06:52:32;;;;;;;;;;;;;;;2.96;100.00;98793.45;1797579;78;21039;-62
2022/02/04 06:55:01;;;;;;;18.07;10.50;;;;;;;2.96;100.00;98787.45;1798038;78;20216;-63
2022/02/04 06:57:28;;;;;;;22.10;11.10;;;;;;;2.99;100.00;98788.64;1803996;78;21141;-63
2022/02/04 06:59:55;;;;;;;17.37;10.15;;;;;;;3.02;100.00;98787.25;1802825;78;21042;-63
2022/02/04 07:02:26;;;;;;;15.08;9.98;;;;;;;3.09;100.00;98791.34;1800793;78;21074;-64
2022/02/04 07:04:51;;;;;;;15.08;9.93;;;;;;;3.12;100.00;98793.82;1805518;78;21033;-64
2022/02/04 07:07:18;;;;;;;17.27;10.90;;;;;;;3.16;100.00;98800.55;1794213;78;21083;-64
2022/02/04 07:12:20;;;;;;;17.40;11.47;;;;;;;3.21;100.00;98793.52;1786412;79;20954;-62
2022/02/04 07:15:10;;;;;;;21.00;13.40;;;;;;;3.23;100.00;98796.91;1759105;79;21660;-65
2022/02/04 07:17:39;;;;;;;28.65;15.55;;;;;;;3.27;100.00;98798.47;1763550;79;21021;-65
2022/02/04 07:20:00;;;;;;;22.35;12.95;;;;;;;3.31;100.00;98800.08;1791932;78;20895;-63
2022/02/04 07:22:31;;;;;;;27.05;13.88;;;;;;;3.36;100.00;98799.48;1777908;79;21531;-64
2022/02/04 07:25:02;;;;;;;20.88;13.43;;;;;;;3.41;100.00;98799.77;1811970;78;20974;-64
2022/02/04 07:27:31;;;;;;;19.80;12.10;;;;;;;3.48;100.00;98796.11;1777286;79;21051;-64
2022/02/04 07:29:58;;;;;;;17.95;11.35;;;;;;;3.52;100.00;98792.52;1797961;78;21022;-64
2022/02/04 07:35:31;;;;;;;23.22;12.20;;;;;;;3.62;100.00;98786.16;1791066;79;21070;-64
2022/02/04 07:43:14;;;;;;;20.37;10.82;;;;;;;3.92;99.95;98786.84;1784839;80;21074;-63
2022/02/04 07:45:41;;;;;;;17.52;11.38;;;;;;;3.95;100.00;98789.74;1785456;79;20935;-63
2022/02/04 07:48:08;;;;;;;;;;;;;;;4.12;99.85;98783.55;1820770;78;21087;-64
2022/02/04 07:50:36;;;;;;;16.10;11.30;;;;;;;4.15;99.42;98788.61;1823388;77;20156;-63
2022/02/04 07:53:03;;;;;;;;;;;;;;;4.18;99.45;98788.49;1799786;79;20978;-63
2022/02/04 07:55:31;;;;;;;21.40;12.55;;;;;;;4.17;99.09;98786.81;1796859;78;20614;-64
2022/02/04 07:57:59;;;;;;;22.45;13.05;;;;;;;4.16;99.07;98787.69;1801722;78;21634;-63
2022/02/04 08:00:27;;;;;;;;;;;;;;;4.22;98.97;98791.34;1801562;78;21034;-63
2022/02/04 08:02:56;;;;;;;18.57;12.40;;;;;;;4.29;99.11;98782.10;1798413;79;20664;-64
2022/02/04 08:05:28;;;;;;;19.82;11.60;;;;;;;4.31;99.16;98773.82;1801313;79;21480;-63
2022/02/04 08:10:32;;;;;;;18.77;12.03;;;;;;;4.44;98.89;98765.55;1800985;78;21017;-64
2022/02/04 08:26:25;;;;;;;17.12;11.25;;;;;;;4.53;98.82;98766.11;1762823;79;21638;-63
2022/02/04 08:29:09;;;;;;;22.42;12.40;;;;;;;4.58;98.97;98766.33;1756692;81;21508;-63
2022/02/04 08:34:13;;;;;;;16.62;11.73;;;;;;;4.61;99.02;98766.20;1739964;79;21020;-63
2022/02/04 08:39:14;;;;;;;20.57;11.55;;;;;;;4.74;98.98;98769.63;1781511;79;20977;-63
2022/02/04 08:47:10;;;;;;;19.70;12.58;;;;;;;4.70;98.74;98786.56;1783792;79;20991;-63
2022/02/04 08:54:41;;;;;;;17.73;12.20;;;;;;;4.74;99.21;98763.17;1784039;79;21166;-62
2022/02/04 08:57:09;;;;;;;21.93;12.07;;;;;;;4.79;99.26;98771.56;1750693;79;21829;-63
2022/02/04 09:02:20;;;;;;;18.15;12.03;;;;;;;4.82;98.84;98768.89;1787576;79;21008;-64
2022/02/04 09:04:48;;;;;;;19.80;12.78;;;;;;;4.81;98.76;98765.44;1739318;81;21020;-63
2022/02/04 09:07:15;;;;;;;16.95;11.85;;;;;;;4.70;99.49;98771.05;1761261;79;21557;-63
2022/02/04 09:20:31;;;;;;;21.85;13.62;;;;;;;4.91;99.54;98764.64;1710439;83;21651;-64
2022/02/04 09:22:51;;;;;;;18.10;11.73;;;;;;;5.01;98.89;98764.64;1677780;84;21289;-66
2022/02/04 09:25:18;;;;;;;18.07;12.13;;;;;;;4.88;99.26;98771.23;1709890;83;21622;-63
2022/02/04 09:27:45;;;;;;;23.87;15.75;;;;;;;4.77;99.45;98761.75;1667920;85;21207;-64
2022/02/04 09:30:16;;;;;;;20.80;14.60;;;;;;;4.74;99.95;98767.88;1661472;85;21045;-64
2022/02/04 09:32:44;;;;;;;20.57;12.80;;;;;;;4.83;100.00;98763.64;1672107;84;21183;-64
2022/02/04 09:35:18;;;;;;;16.10;11.90;;;;;;;4.91;100.00;98758.17;1674959;84;21493;-64
2022/02/04 09:37:48;;;;;;;20.30;12.63;;;;;;;5.05;100.00;98763.63;1703806;84;21173;-63
2022/02/04 09:40:16;;;;;;;15.72;13.00;;;;;;;5.11;99.75;98769.84;1708416;83;20985;-64
2022/02/04 09:42:45;;;;;;;18.80;12.68;;;;;;;5.15;99.52;98766.68;1672122;84;21041;-64
2022/02/04 09:45:27;;;;;;;17.32;12.88;;;;;;;5.13;99.19;98763.34;1673206;84;20946;-65
2022/02/04 09:48:05;;;;;;;21.23;14.38;;;;;;;5.14;99.30;98763.25;1668981;85;21271;-64
2022/02/04 09:50:39;;;;;;;20.68;13.10;;;;;;;5.13;99.25;98759.00;1689263;83;21608;-64
2022/02/04 10:13:22;;;;;;;22.37;14.70;;;;;;;5.39;99.83;98722.14;1765393;80;21040;-64
2022/02/04 10:21:09;;;;;;;19.70;14.93;;;;;;;5.61;100.00;98716.43;1768065;79;21024;-63
2022/02/04 10:24:10;;;;;;;22.37;16.20;;;;;;;5.73;99.89;98718.10;1794448;78;21229;-63
2022/02/04 10:27:19;;;;;;;23.83;15.80;;;;;;;5.78;99.53;98714.86;1782707;78;20949;-62
2022/02/04 10:29:57;;;;;;;23.42;14.90;;;;;;;5.86;99.36;98705.00;1751010;78;22073;-64
2022/02/04 10:32:27;;;;;;;;;;;;;;;5.84;99.03;98701.64;1806481;78;21578;-64
2022/02/04 10:35:17;;;;;;;22.93;15.53;;;;;;;5.80;99.44;98702.69;1801286;78;20441;-64
2022/02/04 10:38:13;;;;;;;18.52;14.18;;;;;;;5.74;99.17;98708.12;1800554;78;20932;-65
2022/02/04 10:40:55;;;;;;;23.75;15.78;;;;;;;5.67;99.31;98706.72;1779076;79;21067;-64
2022/02/04 10:46:45;;;;;;;20.72;14.58;;;;;;;5.58;99.11;98703.62;1774170;79;21428;-65
2022/02/04 10:52:05;;;;;;;24.83;16.43;;;;;;;5.73;99.37;98697.38;1777593;79;21060;-64
2022/02/04 10:58:11;;;;;;;18.00;13.58;;;;;;;5.70;99.03;98692.34;1778327;80;22289;-64
2022/02/04 11:03:34;;;;;;;22.20;15.40;;;;;;;5.61;98.94;98684.06;1830153;77;20937;-65
2022/02/04 11:31:03;;;;;;;26.68;16.97;;;;;;;5.21;99.55;98675.02;1777242;79;21068;-65
2022/02/04 11:51:51;;;;;;;21.55;15.38;;;;;;;5.65;99.40;98643.78;1717151;82;21005;-64
2022/02/04 11:54:30;;;;;;;21.25;15.43;;;;;;;5.74;99.65;98648.55;1683059;82;21046;-64
2022/02/04 11:57:07;;;;;;;20.57;14.40;;;;;;;5.72;99.19;98647.80;1682072;82;21053;-63
2022/02/04 11:59:46;;;;;;;21.10;16.25;;;;;;;5.63;99.03;98643.87;1675674;83;21025;-63
2022/02/04 12:05:20;;;;;;;20.92;15.80;;;;;;;5.52;99.02;98633.98;1712581;80;21029;-64
2022/02/04 12:07:55;;;;;;;19.55;15.83;;;;;;;5.52;99.12;98631.39;1718524;81;21052;-63
2022/02/04 12:10:29;;;;;;;19.27;14.93;;;;;;;5.55;99.44;98623.48;1701154;81;21067;-64
2022/02/04 12:13:09;;;;;;;21.48;15.55;;;;;;;5.64;99.67;98617.52;1692607;81;20981;-63
2022/02/04 12:15:43;;;;;;;17.42;14.68;;;;;;;5.67;99.23;98617.38;1694723;81;21166;-63
2022/02/04 12:18:22;;;;;;;22.10;15.93;;;;;;;5.70;99.35;98612.05;1724000;81;21028;-65
2022/02/04 12:20:54;;;;;;;19.27;14.83;;;;;;;5.81;99.87;98601.58;1732204;81;21009;-62
2022/02/04 12:23:36;;;;;;;22.87;16.45;;;;;;;5.84;99.36;98594.12;1719463;81;21040;-63
2022/02/04 12:26:13;;;;;;;20.12;16.17;;;;;;;5.91;99.53;98600.72;1714617;80;21072;-63
2022/02/04 12:28:52;;;;;;;22.15;17.07;;;;;;;5.94;99.39;98598.48;1724617;82;21243;-63
2022/02/04 12:31:30;;;;;;;24.12;17.75;;;;;;;5.96;99.13;98592.28;1700922;81;21097;-64
2022/02/04 12:34:14;;;;;;;21.73;17.65;;;;;;;5.96;99.25;98592.28;1708401;81;21034;-65
2022/02/04 12:36:54;;;;;;;21.15;17.87;;;;;;;6.05;99.64;98587.99;1711406;81;20988;-62
2022/02/04 12:39:35;;;;;;;22.73;18.42;;;;;;;6.08;99.36;98597.80;1702870;81;21147;-63
2022/02/04 12:42:06;;;;;;;22.10;17.52;;;;;;;6.06;99.01;98590.13;1647537;84;21157;-65
2022/02/04 12:44:36;;;;;;;22.48;17.30;;;;;;;6.05;98.91;98580.68;1672554;82;22291;-63
2022/02/04 12:47:08;;;;;;;22.10;17.73;;;;;;;6.08;98.91;98590.03;1672818;82;21138;-64
2022/02/04 12:49:54;;;;;;;21.77;17.23;;;;;;;6.00;98.94;98584.77;1676768;82;21091;-64
2022/02/04 12:52:30;;;;;;;24.55;17.85;;;;;;;5.96;98.95;98579.33;1670733;82;21100;-64
2022/02/04 12:55:07;;;;;;;21.93;16.75;;;;;;;5.89;98.80;98571.91;1675813;82;21175;-63
2022/02/04 12:58:12;;;;;;;19.70;16.95;;;;;;;5.82;98.97;98568.74;1837174;76;22690;-63
2022/02/04 13:02:00;;;;;;;20.82;16.70;;;;;;;5.71;99.04;98563.22;1808291;77;21026;-64
2022/02/04 13:03:10;;;;;;;22.20;17.60;;;;;;;5.65;99.19;98558.33;1797366;78;21863;-64
2022/02/04 13:11:16;;;;;;;23.27;18.15;;;;;;;5.58;99.33;98545.66;1809368;78;20961;-64
2022/02/04 13:13:49;;;;;;;21.87;17.90;;;;;;;5.55;99.50;98539.33;1797097;77;21448;-64
2022/02/04 13:16:29;;;;;;;24.63;19.25;;;;;;;5.52;99.43;98542.06;1793773;78;21292;-64
2022/02/04 13:19:02;;;;;;;27.07;20.35;;;;;;;5.52;99.42;98540.77;1798193;78;20961;-64
2022/02/04 13:21:30;;;;;;;27.17;19.90;;;;;;;5.55;99.54;98534.61;1789303;78;21569;-65
2022/02/04 13:24:08;;;;;;;25.15;19.35;;;;;;;5.51;99.28;98533.89;1808038;78;21056;-67
2022/02/04 13:26:35;;;;;;;27.35;20.57;;;;;;;5.44;99.20;98527.33;1804500;77;21626;-67
2022/02/04 13:29:05;;;;;;;25.97;20.27;;;;;;;5.42;99.43;98523.96;1790710;79;21086;-66
2022/02/04 13:31:35;;;;;;;26.23;19.98;;;;;;;5.41;99.34;98527.47;1793211;79;21014;-66
2022/02/04 13:34:10;;;;;;;22.40;18.40;;;;;;;5.40;99.34;98527.06;1760339;79;21460;-65
2022/02/04 13:36:53;;;;;;;24.23;19.25;;;;;;;5.38;99.37;98528.45;1791315;79;20930;-66
2022/02/04 13:39:27;;;;;;;26.93;19.20;;;;;;;5.39;99.50;98526.69;1787898;78;20999;-65
2022/02/04 13:42:15;;;;;;;23.10;18.73;;;;;;;5.38;99.40;98532.80;1787546;79;21050;-67
2022/02/04 13:50:16;;;;;;;25.88;18.30;;;;;;;5.39;99.80;98518.92;1784646;79;20990;-64
2022/02/04 13:55:26;;;;;;;19.98;16.80;;;;;;;5.37;99.63;98508.63;1790833;78;21101;-65
2022/02/04 13:57:52;;;;;;;20.37;16.20;;;;;;;5.38;99.81;98506.91;1786884;79;20983;-65
2022/02/04 14:02:49;;;;;;;33.50;23.02;;;;;;;5.16;100.00;98500.09;1761655;80;21465;-65
2022/02/04 14:05:30;;;;;;;23.25;16.93;;;;;;;5.16;100.00;98507.86;1772628;79;22154;-65
2022/02/04 14:08:12;;;;;;;19.45;15.80;;;;;;;5.13;100.00;98500.23;1763745;79;21115;-67
2022/02/04 14:10:56;;;;;;;22.13;17.15;;;;;;;5.13;100.00;98491.18;1770951;79;21028;-64
2022/02/04 14:13:26;;;;;;;22.30;16.15;;;;;;;5.15;100.00;98498.43;1769482;79;21002;-63
2022/02/04 14:16:06;;;;;;;21.85;15.70;;;;;;;5.17;99.95;98493.17;1770151;79;21011;-64
2022/02/04 14:18:36;;;;;;;21.17;16.42;;;;;;;5.17;99.84;98490.58;1764326;80;21086;-64
2022/02/04 14:21:10;;;;;;;23.30;16.73;;;;;;;5.14;99.71;98483.80;1769630;79;21006;-65
2022/02/04 14:23:40;;;;;;;22.30;16.80;;;;;;;5.08;99.60;98494.42;1768331;79;20999;-65
2022/02/04 14:26:17;;;;;;;17.25;15.18;;;;;;;5.02;99.61;98484.35;1766279;79;21080;-72
2022/02/04 15:59:55;;;;;;;49.93;31.37;;;;;;;2.85;100.00;98412.22;1875103;74;21989;-63
2022/02/04 16:04:46;;;;;;;46.18;28.73;;;;;;;2.76;100.00;98407.41;1834311;77;21273;-65
2022/02/04 16:07:19;;;;;;;38.92;27.00;;;;;;;2.79;100.00;98404.72;1841038;75;21558;-66
2022/02/04 16:09:52;;;;;;;40.05;25.92;;;;;;;2.81;100.00;98404.22;1841902;76;21040;-64
2022/02/04 16:12:24;;;;;;;36.68;23.90;;;;;;;2.86;100.00;98402.77;1862683;75;20971;-64
2022/02/04 16:15:01;;;;;;;32.75;22.80;;;;;;;2.91;100.00;98399.13;1852009;76;20990;-64
2022/02/04 16:17:33;;;;;;;34.65;21.37;;;;;;;2.98;100.00;98395.02;1848456;76;21026;-64
2022/02/04 16:20:16;;;;;;;27.75;19.25;;;;;;;3.04;100.00;98394.78;1845918;76;21066;-64
2022/02/04 16:22:57;;;;;;;28.38;18.62;;;;;;;3.07;100.00;98386.47;1843332;77;20922;-64
2022/02/04 16:25:18;;;;;;;23.15;17.90;;;;;;;3.14;100.00;98388.39;1838716;77;21333;-64
2022/02/04 16:30:11;;;;;;;28.75;19.05;;;;;;;3.24;100.00;98387.57;1844871;75;21977;-64
2022/02/04 16:32:38;;;;;;;25.08;18.25;;;;;;;3.27;100.00;98396.02;1841839;76;21015;-64
2022/02/04 16:35:07;;;;;;;26.65;18.90;;;;;;;3.30;100.00;98393.31;1854987;75;20992;-65
2022/02/04 16:37:37;;;;;;;21.25;16.48;;;;;;;3.34;100.00;98394.89;1859101;76;20997;-64
2022/02/04 16:40:14;;;;;;;23.15;16.82;;;;;;;3.38;100.00;98394.77;1846634;75;20931;-64
2022/02/04 16:42:41;;;;;;;21.73;16.02;;;;;;;3.43;100.00;98387.70;1844957;76;21105;-67
2022/02/04 16:45:09;;;;;;;22.98;15.85;;;;;;;3.47;100.00;98389.23;1844231;76;20888;-64
2022/02/04 16:47:36;;;;;;;21.93;16.57;;;;;;;3.50;100.00;98373.63;1843421;77;21006;-63
2022/02/04 16:50:06;;;;;;;19.70;15.30;;;;;;;3.51;100.00;98374.88;1848037;75;21004;-64
2022/02/04 16:52:33;;;;;;;21.73;16.32;;;;;;;3.52;100.00;98362.80;1814384;77;21618;-65
2022/02/04 16:55:21;;;;;;;19.77;15.48;;;;;;;3.51;100.00;98357.27;1703774;82;20985;-65
2022/02/04 16:57:48;;;;;;;23.27;17.40;;;;;;;3.51;100.00;98354.69;1709912;82;20970;-64
2022/02/04 17:00:25;;;;;;;24.65;17.82;;;;;;;3.53;100.00;98360.63;1720426;82;20987;-64
2022/02/04 17:02:58;;;;;;;21.52;16.27;;;;;;;3.57;100.00;98351.84;1701277;82;21048;-64
2022/02/04 17:05:35;;;;;;;22.95;15.90;;;;;;;3.62;100.00;98347.34;1714457;82;21601;-65
2022/02/04 17:08:05;;;;;;;24.10;17.60;;;;;;;3.64;100.00;98337.81;1714811;82;21146;-64
2022/02/04 17:10:30;;;;;;;23.95;17.95;;;;;;;3.64;100.00;98342.97;1703055;82;21142;-65
2022/02/04 17:13:01;;;;;;;21.80;16.37;;;;;;;3.65;100.00;98339.47;1667718;82;21006;-65
2022/02/04 17:15:35;;;;;;;20.80;16.05;;;;;;;3.63;100.00;98325.78;1698853;82;20914;-65
2022/02/04 17:18:05;;;;;;;22.00;16.35;;;;;;;3.59;100.00;98325.53;1698830;82;20972;-66
2022/02/04 17:20:33;;;;;;;21.02;15.93;;;;;;;3.56;100.00;98312.76;1701178;82;21095;-66
2022/02/04 17:23:08;;;;;;;21.77;15.98;;;;;;;3.55;100.00;98330.42;1704030;82;21010;-65
2022/02/04 17:25:39;;;;;;;18.85;15.55;;;;;;;3.54;100.00;98318.42;1700384;82;21589;-65
2022/02/04 17:28:06;;;;;;;19.42;16.20;;;;;;;3.56;100.00;98319.22;1701998;82;20985;-66
2022/02/04 17:30:33;;;;;;;21.93;16.40;;;;;;;3.55;100.00;98309.77;1694437;82;20959;-66
2022/02/04 17:33:02;;;;;;;24.40;15.88;;;;;;;3.58;100.00;98312.22;1693472;82;21615;-66
2022/02/04 17:35:28;;;;;;;21.48;15.83;;;;;;;3.60;100.00;98307.84;1699096;82;20915;-66
2022/02/04 17:37:57;;;;;;;19.77;15.08;;;;;;;3.61;100.00;98296.61;1705979;82;21742;-66
2022/02/04 17:40:26;;;;;;;22.95;16.77;;;;;;;3.61;100.00;98290.16;1696127;82;21015;-66
2022/02/04 17:42:55;;;;;;;22.82;16.97;;;;;;;3.61;100.00;98290.16;1711361;82;21554;-66
2022/02/04 17:45:27;;;;;;;24.43;16.90;;;;;;;3.63;100.00;98287.06;1696770;82;21663;-66
2022/02/04 17:48:05;;;;;;;24.35;17.35;;;;;;;3.63;100.00;98289.64;1702824;82;21107;-65
2022/02/04 17:50:32;;;;;;;20.80;15.08;;;;;;;3.62;100.00;98277.66;1704275;82;22226;-66
2022/02/04 17:53:05;;;;;;;20.48;16.27;;;;;;;3.65;100.00;98276.69;1704521;82;21260;-64
2022/02/04 17:55:33;;;;;;;25.65;16.75;;;;;;;3.66;100.00;98276.61;1694444;83;21042;-65
2022/02/04 17:58:20;;;;;;;32.53;21.05;;;;;;;3.66;100.00;98279.19;1696553;83;21116;-65
2022/02/04 18:06:05;;;;;;;25.10;16.93;;;;;;;3.71;100.00;98268.22;1688846;83;21830;-64
2022/02/04 18:08:27;;;;;;;23.47;16.45;;;;;;;3.73;100.00;98274.17;1675399;83;21008;-65
2022/02/04 18:11:00;;;;;;;20.90;16.90;;;;;;;3.74;100.00;98269.38;1677027;83;21253;-65
2022/02/04 18:13:25;;;;;;;23.83;18.00;;;;;;;3.75;100.00;98273.66;1684763;83;21037;-65
2022/02/04 18:15:52;;;;;;;24.27;17.32;;;;;;;3.77;100.00;98273.12;1680179;83;21025;-65
2022/02/04 18:18:22;;;;;;;19.62;16.65;;;;;;;3.78;100.00;98268.36;1688123;83;21056;-64
2022/02/04 18:20:48;;;;;;;22.15;16.02;;;;;;;3.80;100.00;98263.95;1700724;83;20977;-65
2022/02/04 18:23:16;;;;;;;21.07;16.70;;;;;;;3.84;100.00;98261.23;1702258;83;21401;-64